Pintura, Utah
Current Conditions -  °F | °C
As of 5:53 PM on Monday 20 Oct 2014 (Local Time) from KCDC Reporting Station
Few Clouds Few Clouds  
Wind Chill: 70°   Ceiling: Unl
Heat Index: 70°   Visibility: 10mi
Dew Point: 35°   Wind: 16mph
Humidity: 28%   Direction: 200°SSW
Pressure: 30.01"   Gusts: 22mph
Location:  37.7617°N, 113.219°W
Report Text: KCDC 202353Z AUTO 20014G19KT 10SM FEW080 FEW100 21/02 A3001 RMK AO2 SLP115 T02110017 10233 20206 58006 TSNO
Loading
Personal Weather Stations






























Interactive Weather Map
Tropical Storm Tracking
New forecast layout! Learn more

10-Day Weather Forecast

Advertisements
Track Severe Weather on mobile